createdAt,value
2016-08-02T00:00:19.586Z,85.08
2016-08-02T00:01:19.586Z,85.27
2016-08-02T00:02:19.586Z,85.03
2016-08-02T00:03:19.634Z,85.61
2016-08-02T00:04:19.586Z,85.65
2016-08-02T00:05:19.586Z,85.61
2016-08-02T00:06:19.586Z,85.89
2016-08-02T00:07:19.587Z,85.51
2016-08-02T00:08:19.587Z,85.99
2016-08-02T00:09:19.587Z,86.18
2016-08-02T00:10:19.587Z,86.66
2016-08-02T00:11:19.587Z,86.37
2016-08-02T00:12:19.591Z,86.18
2016-08-02T00:13:19.592Z,86.18
2016-08-02T00:14:19.592Z,86.66
2016-08-02T00:15:19.591Z,86.47
2016-08-02T00:16:19.592Z,87.04
2016-08-02T00:17:19.591Z,86.57
2016-08-02T00:18:19.592Z,86.85
2016-08-02T00:19:19.592Z,86.85
2016-08-02T00:20:19.593Z,87.04
2016-08-02T00:21:19.592Z,86.76
2016-08-02T00:22:19.592Z,86.94
2016-08-02T00:23:19.593Z,86.85
2016-08-02T00:24:19.592Z,87.62
2016-08-02T00:25:18.872Z,87.62
2016-08-02T00:26:19.593Z,87.57
2016-08-02T00:27:19.596Z,87.14
2016-08-02T00:28:19.597Z,87.04
2016-08-02T00:29:19.596Z,87.33
2016-08-02T00:30:19.597Z,87.33
2016-08-02T00:31:19.596Z,87.33
2016-08-02T00:32:19.597Z,87.14
2016-08-02T00:33:19.597Z,87.23
2016-08-02T00:34:19.596Z,87.23
2016-08-02T00:35:19.597Z,87.43
2016-08-02T00:36:19.597Z,86.85
2016-08-02T00:37:19.597Z,87.43
2016-08-02T00:38:19.597Z,86.85
2016-08-02T00:39:19.606Z,87.23
2016-08-02T00:40:19.597Z,87.14
2016-08-02T00:41:19.601Z,87.04
2016-08-02T00:42:19.601Z,87.14
2016-08-02T00:43:19.601Z,87.52
2016-08-02T00:44:19.601Z,86.85
2016-08-02T00:45:19.601Z,87.33
2016-08-02T00:46:19.600Z,87.14
2016-08-02T00:47:19.601Z,87.33
2016-08-02T00:48:19.601Z,86.94
2016-08-02T00:49:19.601Z,87.04
2016-08-02T00:50:19.597Z,87.81
2016-08-02T00:51:19.601Z,87.52
2016-08-02T00:52:19.601Z,87.62
2016-08-02T00:53:19.601Z,87.23
2016-08-02T00:54:19.601Z,87.71
2016-08-02T00:55:19.601Z,87.62
2016-08-02T00:56:19.613Z,87.62
2016-08-02T00:57:19.605Z,87.81
2016-08-02T00:58:19.601Z,87.9
2016-08-02T00:59:19.601Z,87.81
2016-08-02T01:00:19.605Z,87.81
2016-08-02T01:01:19.601Z,88.19
2016-08-02T01:02:19.605Z,87.9
2016-08-02T01:03:19.604Z,88.09
2016-08-02T01:04:19.604Z,88
2016-08-02T01:05:19.605Z,87.81
2016-08-02T01:06:19.605Z,87.81
2016-08-02T01:07:19.605Z,87.71
2016-08-02T01:08:19.605Z,87.62
2016-08-02T01:09:19.606Z,88
2016-08-02T01:10:19.605Z,87.81
2016-08-02T01:11:19.605Z,87.9
2016-08-02T01:12:19.606Z,87.81
2016-08-02T01:13:19.605Z,87.43
2016-08-02T01:14:19.605Z,87.33
2016-08-02T01:15:19.605Z,87.62
2016-08-02T01:16:19.605Z,87.71
2016-08-02T01:17:19.606Z,87.62
2016-08-02T01:18:19.609Z,87.81
2016-08-02T01:19:19.605Z,87.14
2016-08-02T01:20:19.605Z,87.23
2016-08-02T01:21:19.606Z,87.52
2016-08-02T01:22:19.610Z,86.85
2016-08-02T01:23:19.607Z,87.04
2016-08-02T01:24:19.610Z,86.57
2016-08-02T01:25:19.611Z,86.7
2016-08-02T01:26:19.611Z,86.22
2016-08-02T01:27:19.610Z,86.51
2016-08-02T01:28:19.611Z,86.22
2016-08-02T01:29:19.610Z,86.32
2016-08-02T01:30:19.610Z,86.04
2016-08-02T01:31:19.610Z,85.84
2016-08-02T01:32:19.610Z,85.46
2016-08-02T01:33:19.610Z,85.55
2016-08-02T01:34:19.610Z,85.17
2016-08-02T01:35:19.610Z,85.08
2016-08-02T01:36:19.609Z,85.17
2016-08-02T01:37:19.610Z,84.88
2016-08-02T01:38:19.609Z,84.5
2016-08-02T01:39:19.622Z,84.69
2016-08-02T01:40:19.610Z,84.41
2016-08-02T01:41:19.610Z,84.5
2016-08-02T01:42:19.610Z,84.22
2016-08-02T01:43:19.609Z,84.22
2016-08-02T01:44:19.610Z,83.93
2016-08-02T01:45:19.609Z,83.83
2016-08-02T01:46:19.609Z,83.36
2016-08-02T01:47:19.610Z,83.54
2016-08-02T01:48:19.614Z,82.97
2016-08-02T01:49:19.609Z,83.26
2016-08-02T01:50:19.611Z,83.01
2016-08-02T01:51:19.618Z,82.92
2016-08-02T01:52:19.614Z,83.16
2016-08-02T01:53:19.610Z,82.34
2016-08-02T01:54:19.614Z,82.73
2016-08-02T01:55:19.615Z,82.34
2016-08-02T01:56:19.614Z,82.01
2016-08-02T01:57:19.615Z,81.86
2016-08-02T01:58:19.615Z,81.96
2016-08-02T01:59:19.615Z,81.57
2016-08-02T02:00:19.614Z,81.67
2016-08-02T02:01:19.615Z,81.77
2016-08-02T02:02:19.615Z,81.57
2016-08-02T02:03:19.667Z,81.57
2016-08-02T02:04:19.615Z,81.38
2016-08-02T02:05:19.616Z,81.86
2016-08-02T02:06:19.615Z,81.29
2016-08-02T02:07:19.615Z,81.2
2016-08-02T02:08:19.615Z,81.29
2016-08-02T02:09:19.615Z,81
2016-08-02T02:10:19.616Z,81
2016-08-02T02:11:19.615Z,81.29
2016-08-02T02:12:19.616Z,81.2
2016-08-02T02:13:19.616Z,81
2016-08-02T02:14:19.616Z,81.1
2016-08-02T02:15:19.617Z,80.9
2016-08-02T02:16:19.620Z,81
2016-08-02T02:17:19.619Z,80.81
2016-08-02T02:18:19.620Z,80.81
2016-08-02T02:19:19.620Z,81
2016-08-02T02:20:19.619Z,80.62
2016-08-02T02:21:19.620Z,80.9
2016-08-02T02:22:19.620Z,81.2
2016-08-02T02:23:19.619Z,81
2016-08-02T02:24:19.620Z,80.81
2016-08-02T02:25:19.620Z,81
2016-08-02T02:26:19.619Z,80.81
2016-08-02T02:27:19.620Z,80.81
2016-08-02T02:28:19.620Z,80.71
2016-08-02T02:29:19.620Z,80.62
2016-08-02T02:30:19.620Z,80.62
2016-08-02T02:31:19.619Z,80.9
2016-08-02T02:32:18.899Z,81.1
2016-08-02T02:33:19.620Z,81
2016-08-02T02:34:19.620Z,80.71
2016-08-02T02:35:19.624Z,80.71
2016-08-02T02:36:19.620Z,81.1
2016-08-02T02:37:19.621Z,81
2016-08-02T02:38:19.620Z,81
2016-08-02T02:39:19.620Z,80.9
2016-08-02T02:40:19.620Z,80.81
2016-08-02T02:41:19.620Z,81.2
2016-08-02T02:42:19.621Z,81
2016-08-02T02:43:19.624Z,81.29
2016-08-02T02:44:19.620Z,81.57
2016-08-02T02:45:19.624Z,81.73
2016-08-02T02:46:19.624Z,81.77
2016-08-02T02:47:19.624Z,81.48
2016-08-02T02:48:19.624Z,81.63
2016-08-02T02:49:19.624Z,81.15
2016-08-02T02:50:19.624Z,81.63
2016-08-02T02:51:19.628Z,82.01
2016-08-02T02:52:19.625Z,81.82
2016-08-02T02:53:19.624Z,82.01
2016-08-02T02:54:19.624Z,82.3
2016-08-02T02:55:19.624Z,82.49
2016-08-02T02:56:19.627Z,82.3
2016-08-02T02:57:19.624Z,82.49
2016-08-02T02:58:19.624Z,82.87
2016-08-02T02:59:19.625Z,82.87
2016-08-02T03:00:19.625Z,82.97
2016-08-02T03:01:19.625Z,83.36
2016-08-02T03:02:19.625Z,83.06
2016-08-02T03:03:19.624Z,83.73
2016-08-02T03:04:19.624Z,83.45
2016-08-02T03:05:19.624Z,83.98
2016-08-02T03:06:19.625Z,83.98
2016-08-02T03:07:19.625Z,84.36
2016-08-02T03:08:19.629Z,84.46
2016-08-02T03:09:19.626Z,84.36
2016-08-02T03:10:19.625Z,84.46
2016-08-02T03:11:19.630Z,84.75
2016-08-02T03:12:19.630Z,84.65
2016-08-02T03:13:19.633Z,84.75
2016-08-02T03:14:19.633Z,85.22
2016-08-02T03:15:19.637Z,85.41
2016-08-02T03:16:19.629Z,85.51
2016-08-02T03:17:19.629Z,85.61
2016-08-02T03:18:19.629Z,85.13
2016-08-02T03:19:19.633Z,85.8
2016-08-02T03:20:19.629Z,86.08
2016-08-02T03:21:19.630Z,85.99
2016-08-02T03:22:19.630Z,86.18
2016-08-02T03:23:19.629Z,86.04
2016-08-02T03:25:19.630Z,86.51
2016-08-02T03:26:19.630Z,86.41
2016-08-02T03:27:19.631Z,86.32
2016-08-02T03:28:19.631Z,86.04
2016-08-02T03:29:19.634Z,86.32
2016-08-02T03:30:19.630Z,86.22
2016-08-02T03:31:19.630Z,86.32
2016-08-02T03:32:19.630Z,86.51
2016-08-02T03:33:19.635Z,86.9
2016-08-02T03:34:19.634Z,86.32
2016-08-02T03:35:19.631Z,86.04
2016-08-02T03:36:19.630Z,86.04
2016-08-02T03:37:19.634Z,86.8
2016-08-02T03:38:19.634Z,86.04
2016-08-02T03:40:19.635Z,86.51
2016-08-02T03:41:19.635Z,86.61
2016-08-02T03:42:19.634Z,86.51
2016-08-02T03:43:19.635Z,86.7
2016-08-02T03:44:19.634Z,86.7
2016-08-02T03:45:19.635Z,86.51
2016-08-02T03:46:19.635Z,86.9
2016-08-02T03:47:19.635Z,86.7
2016-08-02T03:48:19.635Z,87.08
2016-08-02T03:49:19.635Z,87.08
2016-08-02T03:50:19.634Z,86.99
2016-08-02T03:51:19.635Z,87.27
2016-08-02T03:52:19.639Z,86.8
2016-08-02T03:53:19.635Z,87.08
2016-08-02T03:55:19.639Z,86.99
2016-08-02T03:56:19.639Z,86.8
2016-08-02T03:57:19.639Z,86.8
2016-08-02T03:58:19.639Z,86.9
2016-08-02T03:59:19.639Z,86.99
2016-08-02T04:00:19.651Z,87.08
2016-08-02T04:01:19.639Z,87.08
2016-08-02T04:02:19.639Z,86.99
2016-08-02T04:03:19.687Z,86.9
2016-08-02T04:04:19.643Z,87.08
2016-08-02T04:05:19.639Z,86.8
2016-08-02T04:06:19.639Z,87.08
2016-08-02T04:07:19.639Z,87.08
2016-08-02T04:08:19.640Z,87.08
2016-08-02T04:10:19.639Z,86.99
2016-08-02T04:11:19.639Z,87.18
2016-08-02T04:12:19.639Z,86.8
2016-08-02T04:13:19.639Z,86.7
2016-08-02T04:14:19.643Z,87.08
2016-08-02T04:15:19.639Z,87.08
2016-08-02T04:16:19.639Z,87.08
2016-08-02T04:17:19.638Z,87.08
2016-08-02T04:18:19.643Z,86.9
2016-08-02T04:19:19.639Z,87.08
2016-08-02T04:20:19.639Z,87.03
2016-08-02T04:21:19.643Z,87.13
2016-08-02T04:22:19.645Z,87.13
2016-08-02T04:23:19.639Z,86.55
2016-08-02T04:25:19.643Z,87.03
2016-08-02T04:26:19.643Z,86.74
2016-08-02T04:27:19.643Z,86.74
2016-08-02T04:28:19.647Z,86.55
2016-08-02T04:29:19.644Z,86.08
2016-08-02T04:30:19.644Z,86.46
2016-08-02T04:31:19.644Z,86.46
2016-08-02T04:32:19.644Z,86.36
2016-08-02T04:33:19.644Z,86.74
2016-08-02T04:34:19.644Z,86.46
2016-08-02T04:35:19.644Z,86.41
2016-08-02T04:36:19.645Z,86.12
2016-08-02T04:37:19.644Z,85.83
2016-08-02T04:38:19.644Z,86.21
2016-08-02T04:40:19.644Z,85.54
2016-08-02T04:41:19.644Z,85.74
2016-08-02T04:42:19.644Z,85.83
2016-08-02T04:43:19.643Z,85.35
2016-08-02T04:44:19.644Z,85.74
2016-08-02T04:45:19.643Z,85.25
2016-08-02T04:46:19.643Z,85.35
2016-08-02T04:47:19.648Z,85.45
2016-08-02T04:48:19.644Z,85.06
2016-08-02T04:49:19.648Z,84.78
2016-08-02T04:50:19.648Z,84.78
2016-08-02T04:51:19.656Z,85.16
2016-08-02T04:52:19.648Z,84.78
2016-08-02T04:53:19.650Z,84.78
2016-08-02T04:55:19.648Z,84.49
2016-08-02T04:56:19.649Z,84.49
2016-08-02T04:57:19.648Z,84.2
2016-08-02T04:58:19.654Z,84.39
2016-08-02T04:59:19.649Z,84.39
2016-08-02T05:00:19.650Z,84.49
2016-08-02T05:01:19.649Z,84.49
2016-08-02T05:02:19.649Z,84.01
2016-08-02T05:03:19.650Z,83.82
2016-08-02T05:04:19.649Z,83.86
2016-08-02T05:05:19.649Z,83.95
2016-08-02T05:06:19.650Z,83.48
2016-08-02T05:07:19.650Z,83.58
2016-08-02T05:08:19.649Z,83.38
2016-08-02T05:10:19.650Z,83.67
2016-08-02T05:11:19.649Z,83.95
2016-08-02T05:12:19.666Z,83.19
2016-08-02T05:13:19.653Z,83.09
2016-08-02T05:14:19.654Z,83.29
2016-08-02T05:15:19.654Z,83.19
2016-08-02T05:16:19.653Z,83.38
2016-08-02T05:17:19.654Z,83.58
2016-08-02T05:18:19.654Z,83
2016-08-02T05:19:19.653Z,82.81
2016-08-02T05:20:19.653Z,83
2016-08-02T05:21:19.654Z,83
2016-08-02T05:22:19.654Z,83.19
2016-08-02T05:23:19.654Z,82.52
2016-08-02T05:25:19.654Z,82.52
2016-08-02T05:26:19.653Z,82.46
2016-08-02T05:27:19.658Z,82.46
2016-08-02T05:28:19.654Z,82.75
2016-08-02T05:29:18.937Z,82.42
2016-08-02T05:30:19.670Z,82.85
2016-08-02T05:31:19.658Z,82.75
2016-08-02T05:32:19.658Z,82.46
2016-08-02T05:33:19.658Z,82.37
2016-08-02T05:34:19.658Z,82.32
2016-08-02T05:35:19.659Z,82.46
2016-08-02T05:36:19.657Z,82.65
2016-08-02T05:37:19.661Z,82.71
2016-08-02T05:38:19.657Z,83.19
2016-08-02T05:40:19.658Z,82.9
2016-08-02T05:41:19.658Z,83
2016-08-02T05:42:19.658Z,82.94
2016-08-02T05:43:19.658Z,83.04
2016-08-02T05:44:19.663Z,83
2016-08-02T05:45:19.659Z,83
2016-08-02T05:46:19.658Z,82.94
2016-08-02T05:47:19.670Z,82.94
2016-08-02T05:48:19.663Z,83.14
2016-08-02T05:49:19.662Z,83.23
2016-08-02T05:50:19.669Z,82.37
2016-08-02T05:51:19.663Z,82.46
2016-08-02T05:52:19.662Z,82.37
2016-08-02T05:53:19.663Z,82.27
2016-08-02T05:54:19.662Z,82.56
2016-08-02T05:55:19.662Z,82.37
2016-08-02T05:56:19.674Z,82.56
2016-08-02T05:57:19.662Z,82.41
2016-08-02T05:58:19.663Z,82.41
2016-08-02T05:59:19.663Z,81.93
2016-08-02T06:00:19.662Z,81.74
2016-08-02T06:01:19.663Z,81.6
2016-08-02T06:02:19.662Z,82.27
2016-08-02T06:03:19.663Z,81.98
2016-08-02T06:04:19.675Z,82.18
2016-08-02T06:05:19.671Z,82.46
2016-08-02T06:06:19.672Z,82.18
2016-08-02T06:07:19.683Z,82.18
2016-08-02T06:08:19.668Z,82.21
2016-08-02T06:09:19.668Z,82.03
2016-08-02T06:10:19.667Z,81.84
2016-08-02T06:11:19.671Z,81.74
2016-08-02T06:12:18.947Z,81.84
2016-08-02T06:13:19.663Z,81.93
2016-08-02T06:14:19.668Z,82.12
2016-08-02T06:15:19.667Z,81.45
2016-08-02T06:16:19.668Z,81.3
2016-08-02T06:17:19.679Z,81.4
2016-08-02T06:18:19.672Z,81.4
2016-08-02T06:19:19.668Z,81.2
2016-08-02T06:20:19.672Z,81.01
2016-08-02T06:21:19.671Z,80.63
2016-08-02T06:22:19.671Z,80.24
2016-08-02T06:23:19.672Z,80.38
2016-08-02T06:24:19.672Z,80.86
2016-08-02T06:25:19.676Z,80.09
2016-08-02T06:26:19.672Z,79.71
2016-08-02T06:27:19.673Z,79.9
2016-08-02T06:28:19.680Z,79.52
2016-08-02T06:29:19.672Z,79.07
2016-08-02T06:30:19.672Z,78.21
2016-08-02T06:31:19.672Z,78.4
2016-08-02T06:32:19.673Z,78.3
2016-08-02T06:33:19.677Z,78.11
2016-08-02T06:34:19.672Z,77.73
2016-08-02T06:35:19.677Z,77.73
2016-08-02T06:36:19.676Z,77.44
2016-08-02T06:37:19.676Z,76.96
2016-08-02T06:38:19.676Z,76.77
2016-08-02T06:39:19.676Z,76.29
2016-08-02T06:40:19.677Z,76.39
2016-08-02T06:41:19.676Z,76
2016-08-02T06:42:19.676Z,76.29
2016-08-02T06:43:19.676Z,76.19
2016-08-02T06:44:19.676Z,75.71
2016-08-02T06:45:19.677Z,75.71
2016-08-02T06:46:19.676Z,75.52
2016-08-02T06:47:19.681Z,75.9
2016-08-02T06:48:19.680Z,75.9
2016-08-02T06:49:19.680Z,75.71
2016-08-02T06:50:19.680Z,76.09
2016-08-02T06:51:19.680Z,75.71
2016-08-02T06:52:19.680Z,75.52
2016-08-02T06:53:19.688Z,75.52
2016-08-02T06:54:19.684Z,75.71
2016-08-02T06:55:19.684Z,75.27
2016-08-02T06:56:19.685Z,75.32
2016-08-02T06:57:19.685Z,75.62
2016-08-02T06:58:19.685Z,75.13
2016-08-02T06:59:19.688Z,75.62
2016-08-02T07:00:19.685Z,75.32
2016-08-02T07:01:19.685Z,75.9
2016-08-02T07:02:19.685Z,75.9
2016-08-02T07:03:19.836Z,75.46
2016-08-02T07:04:19.685Z,75.75
2016-08-02T07:05:19.689Z,75.27
2016-08-02T07:06:19.689Z,74.79
2016-08-02T07:07:19.689Z,73.67
2016-08-02T07:08:19.693Z,72.74
2016-08-02T07:09:19.689Z,71.37
2016-08-02T07:10:19.688Z,69.57
2016-08-02T07:11:19.689Z,67.33
2016-08-02T07:12:19.689Z,65.34
2016-08-02T07:13:19.689Z,63.37
2016-08-02T07:14:19.689Z,60.92
2016-08-02T07:15:19.689Z,58.65
2016-08-02T07:16:19.693Z,56.97
2016-08-02T07:17:19.694Z,54.7
2016-08-02T07:18:19.694Z,51.84
2016-08-02T07:19:19.694Z,50.92
2016-08-02T07:20:19.693Z,49.1
2016-08-02T07:21:19.693Z,47.56
2016-08-02T07:22:19.694Z,46.23
2016-08-02T07:23:19.694Z,44.49
2016-08-02T07:24:19.694Z,44.3
2016-08-02T07:25:19.693Z,44.1
2016-08-02T07:26:19.698Z,43.23
2016-08-02T07:27:19.697Z,42.84
2016-08-02T07:28:19.699Z,42.18
2016-08-02T07:29:19.698Z,41.42
2016-08-02T07:30:19.815Z,40.25
2016-08-02T07:31:19.697Z,39.39
2016-08-02T07:32:19.697Z,38.51
2016-08-02T07:33:19.702Z,38.14
2016-08-02T07:34:19.702Z,37.55
2016-08-02T07:35:19.702Z,36.19
2016-08-02T07:36:19.702Z,35.94
2016-08-02T07:37:19.702Z,35.64
2016-08-02T07:38:19.703Z,34.78
2016-08-02T07:39:19.707Z,34.39
2016-08-02T07:40:19.703Z,34.31
2016-08-02T07:41:19.706Z,33.53
2016-08-02T07:42:19.706Z,33.05
2016-08-02T07:43:19.717Z,32.66
2016-08-02T07:44:19.711Z,32.09
2016-08-02T07:45:19.707Z,31.32
2016-08-02T07:46:19.719Z,30.75
2016-08-02T07:47:19.709Z,30.65
2016-08-02T07:48:19.711Z,30.85
2016-08-02T07:49:19.710Z,30.75
2016-08-02T07:50:19.719Z,30.75
2016-08-02T07:51:19.710Z,30.55
2016-08-02T07:52:19.715Z,30.35
2016-08-02T07:53:19.714Z,29.95
2016-08-02T07:54:19.715Z,29.46
2016-08-02T07:55:19.714Z,29.46
2016-08-02T07:56:19.716Z,28.69
2016-08-02T07:57:19.729Z,28.4
2016-08-02T07:58:19.723Z,28.31
2016-08-02T07:59:19.719Z,27.83
2016-08-02T08:00:19.875Z,27.92
2016-08-02T08:01:19.724Z,27.92
2016-08-02T08:02:19.719Z,28.01
2016-08-02T08:03:19.723Z,28.49
2016-08-02T08:04:19.727Z,28.68
2016-08-02T08:05:19.719Z,28.88
2016-08-02T08:06:19.723Z,28.57
2016-08-02T08:07:19.727Z,28.57
2016-08-02T08:08:19.728Z,28.18
2016-08-02T08:09:19.727Z,27.9
2016-08-02T08:10:19.728Z,26.64
2016-08-02T08:11:19.732Z,25.49
2016-08-02T08:12:19.732Z,24.82
2016-08-02T08:13:19.731Z,24.06
2016-08-02T08:14:19.732Z,23.68
2016-08-02T08:15:19.735Z,23.09
2016-08-02T08:16:19.736Z,22.2
2016-08-02T08:17:19.735Z,22.41
2016-08-02T08:18:19.735Z,22.31
2016-08-02T08:19:19.735Z,22.01
2016-08-02T08:20:19.740Z,22.11
2016-08-02T08:21:19.740Z,22.2
2016-08-02T08:22:19.745Z,22.1
2016-08-02T08:23:19.743Z,22
2016-08-02T08:24:19.752Z,22.3
2016-08-02T08:25:19.747Z,22.58
2016-08-02T08:26:19.748Z,22.28
2016-08-02T08:27:19.752Z,22.48
2016-08-02T08:28:19.755Z,22.86
2016-08-02T08:29:19.752Z,23.44
2016-08-02T08:30:19.752Z,24.11
2016-08-02T08:31:19.752Z,24.48
2016-08-02T08:32:19.755Z,25.06
2016-08-02T08:33:19.756Z,25.65
2016-08-02T08:34:19.762Z,25.93
2016-08-02T08:35:19.760Z,26.61
2016-08-02T08:36:19.760Z,26.5
2016-08-02T08:37:19.759Z,27.37
2016-08-02T08:38:19.759Z,27.47
2016-08-02T08:39:19.944Z,27.56
2016-08-02T08:40:19.764Z,27.56
2016-08-02T08:41:19.768Z,27.17
2016-08-02T08:42:19.768Z,26.49
2016-08-02T08:43:19.768Z,26.6
2016-08-02T08:44:19.773Z,26.03
2016-08-02T08:45:19.773Z,25.35
2016-08-02T08:46:19.778Z,25.27
2016-08-02T08:47:19.772Z,24.77
2016-08-02T08:48:19.776Z,24.3
2016-08-02T08:49:19.777Z,24.02
2016-08-02T08:50:19.776Z,24.02
2016-08-02T08:51:19.781Z,23.83
2016-08-02T08:52:19.780Z,23.24
2016-08-02T08:53:19.780Z,22.56
2016-08-02T08:54:19.783Z,22.19
2016-08-02T08:55:19.784Z,21.81
2016-08-02T08:56:19.784Z,21.42
2016-08-02T08:57:19.789Z,20.93
2016-08-02T08:58:19.801Z,20.75
2016-08-02T08:59:19.793Z,20.56
2016-08-02T09:00:19.793Z,20.46
2016-08-02T09:01:19.804Z,20.67
2016-08-02T09:02:19.797Z,20.65
2016-08-02T09:03:19.897Z,20.27
2016-08-02T09:04:19.797Z,20.67
2016-08-02T09:05:19.801Z,20.65
2016-08-02T09:06:19.800Z,20.65
2016-08-02T09:07:19.801Z,21.33
2016-08-02T09:08:19.805Z,21.22
2016-08-02T09:09:19.804Z,21.9
2016-08-02T09:11:19.810Z,23.07
2016-08-02T09:12:19.809Z,23.54
2016-08-02T09:13:19.832Z,23.54
2016-08-02T09:14:19.821Z,23.34
2016-08-02T09:15:19.813Z,23.05
2016-08-02T09:16:19.817Z,22.56
2016-08-02T09:17:19.816Z,22.27
2016-08-02T09:18:19.821Z,21.8
2016-08-02T09:19:19.821Z,21.12
2016-08-02T09:20:19.821Z,20.84
2016-08-02T09:21:19.826Z,20.84
2016-08-02T09:22:20.006Z,20.85
2016-08-02T09:23:19.829Z,20.56
2016-08-02T09:24:19.829Z,20.37
2016-08-02T09:26:19.833Z,19.98
2016-08-02T09:27:19.834Z,19.89
2016-08-02T09:28:19.837Z,19.98
2016-08-02T09:29:19.837Z,20.06
2016-08-02T09:30:19.837Z,20.27
2016-08-02T09:31:19.842Z,19.88
2016-08-02T09:32:19.841Z,19.79
2016-08-02T09:33:19.846Z,19
2016-08-02T09:34:19.846Z,18.81
2016-08-02T09:35:19.849Z,18.81
2016-08-02T09:36:19.862Z,18.81
2016-08-02T09:37:19.850Z,18.71
2016-08-02T09:38:19.853Z,18.81
2016-08-02T09:39:19.854Z,18.62
2016-08-02T09:41:19.858Z,19.59
2016-08-02T09:42:19.862Z,19.98
2016-08-02T09:43:19.862Z,20.06
2016-08-02T09:44:19.861Z,20.84
2016-08-02T09:45:19.867Z,21.33
2016-08-02T09:46:19.867Z,21.52
2016-08-02T09:47:19.869Z,22.11
2016-08-02T09:48:19.870Z,22.39
2016-08-02T09:49:19.874Z,22.19
2016-08-02T09:50:19.873Z,22.86
2016-08-02T09:51:19.882Z,23.35
2016-08-02T09:52:19.877Z,23.63
2016-08-02T09:53:19.879Z,24.11
2016-08-02T09:54:19.882Z,24.31
2016-08-02T09:56:19.887Z,24.87
2016-08-02T09:57:19.887Z,25.07
2016-08-02T09:58:19.891Z,25.65
2016-08-02T09:59:19.891Z,25.94
2016-08-02T10:00:19.896Z,26.22
2016-08-02T10:01:19.175Z,26.71
2016-08-02T10:02:19.899Z,26.6
2016-08-02T10:03:19.179Z,26.7
2016-08-02T10:04:19.903Z,26.6
2016-08-02T10:05:19.903Z,26.99
2016-08-02T10:06:19.908Z,27.27
2016-08-02T10:07:19.907Z,27.66
2016-08-02T10:08:19.911Z,27.66
2016-08-02T10:09:19.914Z,27.95
2016-08-02T10:11:19.923Z,28.14
2016-08-02T10:12:19.918Z,27.94
2016-08-02T10:13:19.927Z,28.52
2016-08-02T10:14:19.919Z,28.42
2016-08-02T10:15:19.924Z,28.22
2016-08-02T10:16:19.927Z,28.13
2016-08-02T10:17:19.930Z,28.32
2016-08-02T10:18:19.927Z,28.13
2016-08-02T10:19:19.931Z,28.71
2016-08-02T10:20:19.932Z,28.89
2016-08-02T10:21:19.936Z,28.79
2016-08-02T10:22:19.935Z,28.69
2016-08-02T10:23:19.939Z,28.79
2016-08-02T10:24:19.939Z,28.69
2016-08-02T10:26:19.943Z,29.08
2016-08-02T10:27:19.948Z,28.79
2016-08-02T10:28:19.948Z,29.17
2016-08-02T10:29:19.963Z,29.46
2016-08-02T10:30:19.959Z,29.36
2016-08-02T10:31:19.954Z,29.85
2016-08-02T10:32:19.956Z,30.13
2016-08-02T10:33:19.964Z,30.32
2016-08-02T10:34:19.967Z,30.13
2016-08-02T10:35:19.963Z,30.03
2016-08-02T10:36:19.963Z,30.22
2016-08-02T10:37:19.967Z,30.42
2016-08-02T10:38:19.962Z,30.22
2016-08-02T10:42:16.155Z,29.74
2016-08-02T10:42:56.915Z,29.46
2016-08-02T10:43:56.227Z,29.36
2016-08-02T10:44:56.948Z,29.27
2016-08-02T10:45:56.951Z,29.17
2016-08-02T10:46:56.952Z,28.99
2016-08-02T10:47:56.952Z,28.99
2016-08-02T10:48:56.964Z,29.28
2016-08-02T10:49:56.951Z,28.99
2016-08-02T10:50:56.235Z,28.99
2016-08-02T10:51:56.240Z,28.59
2016-08-02T10:52:56.959Z,28.11
2016-08-02T10:53:56.247Z,28.69
2016-08-02T10:54:56.964Z,27.91
2016-08-02T10:55:56.971Z,28.13
2016-08-02T10:56:56.972Z,28.03
2016-08-02T10:57:56.252Z,27.64
2016-08-02T10:58:56.255Z,28.23
2016-08-02T10:59:56.979Z,27.75
2016-08-02T11:00:56.980Z,27.75
2016-08-02T11:01:56.260Z,27.94
2016-08-02T11:02:56.987Z,28.23
2016-08-02T11:03:57.088Z,27.95
2016-08-02T11:04:56.263Z,27.75
2016-08-02T11:05:56.993Z,28.14
2016-08-02T11:06:56.989Z,28.05
2016-08-02T11:07:56.992Z,27.65
2016-08-02T11:08:56.989Z,27.94
2016-08-02T11:09:57.005Z,27.94
2016-08-02T11:10:57.004Z,27.75
2016-08-02T11:11:56.997Z,27.94
2016-08-02T11:12:57.004Z,28.14
2016-08-02T11:13:57.001Z,28.53
2016-08-02T11:14:57.012Z,28.91
2016-08-02T11:15:57.013Z,29.2
2016-08-02T11:16:57.025Z,28.91
2016-08-02T11:17:56.297Z,29
2016-08-02T11:18:56.296Z,29.2
2016-08-02T11:19:57.013Z,29.3
2016-08-02T11:20:57.013Z,29.2
2016-08-02T11:21:56.301Z,29
2016-08-02T11:22:57.021Z,28.61
2016-08-02T11:23:57.025Z,28.32
2016-08-02T11:24:56.309Z,28.32
2016-08-02T11:25:57.049Z,28.52
2016-08-02T11:26:57.038Z,29
2016-08-02T11:27:57.041Z,28.79
2016-08-02T11:28:57.045Z,29.18
2016-08-02T11:29:57.045Z,28.99
2016-08-02T11:30:56.321Z,28.89
2016-08-02T11:31:57.049Z,28.89
2016-08-02T11:32:57.041Z,28.59
2016-08-02T11:33:56.338Z,28.52
2016-08-02T11:34:57.054Z,28.69
2016-08-02T11:35:57.049Z,28.79
2016-08-02T11:36:56.334Z,28.5
2016-08-02T11:37:57.057Z,28.4
2016-08-02T11:38:57.066Z,28.2
2016-08-02T11:39:56.341Z,28.59
2016-08-02T11:40:57.062Z,28.11
2016-08-02T11:41:57.070Z,28.3
2016-08-02T11:42:57.065Z,28.88
2016-08-02T11:43:57.069Z,28.88
2016-08-02T11:44:56.353Z,28.88
2016-08-02T11:45:57.074Z,29.15
2016-08-02T11:46:57.074Z,29.25
2016-08-02T11:47:56.358Z,28.77
2016-08-02T11:48:57.078Z,29.17
2016-08-02T11:49:57.077Z,29.36
2016-08-02T11:50:57.083Z,29.15
2016-08-02T11:51:57.082Z,29.27
2016-08-02T11:52:56.369Z,29.75
2016-08-02T11:53:56.365Z,29.75
2016-08-02T11:54:57.098Z,29.85
2016-08-02T11:55:57.087Z,29.75
2016-08-02T11:56:56.379Z,29.85
2016-08-02T11:57:57.099Z,29.95
2016-08-02T11:58:56.379Z,30.13
2016-08-02T11:59:57.103Z,30.22
2016-08-02T12:00:57.107Z,29.95
2016-08-02T12:01:56.383Z,30.05
2016-08-02T12:02:57.114Z,30.34
2016-08-02T12:03:56.406Z,30.44
2016-08-02T12:04:57.119Z,30.34
2016-08-02T12:05:57.119Z,30.34
2016-08-02T12:06:57.111Z,30.44
2016-08-02T12:07:57.119Z,30.34
2016-08-02T12:08:57.119Z,30.15
2016-08-02T12:09:56.406Z,29.66
2016-08-02T12:10:56.418Z,29.67
2016-08-02T12:11:57.131Z,29.18
2016-08-02T12:12:56.410Z,28.89
2016-08-02T12:13:57.134Z,29
2016-08-02T12:14:57.135Z,28.81
2016-08-02T12:15:56.418Z,28.52
2016-08-02T12:16:57.139Z,28.22
2016-08-02T12:17:57.135Z,28.61
2016-08-02T12:18:57.137Z,28.22
2016-08-02T12:19:57.138Z,28.42
2016-08-02T12:20:57.443Z,28.81
2016-08-02T12:21:57.148Z,28.71
2016-08-02T12:22:57.155Z,28.13
2016-08-02T12:23:57.154Z,28.2
2016-08-02T12:24:57.159Z,28.3
2016-08-02T12:26:57.162Z,28.39
2016-08-02T12:27:57.154Z,28.29
2016-08-02T12:28:57.182Z,28.68
2016-08-02T12:29:56.446Z,29.17
2016-08-02T12:30:56.455Z,29.36
2016-08-02T12:31:57.174Z,29.54
2016-08-02T12:32:57.174Z,29.56
2016-08-02T12:33:57.174Z,29.66
2016-08-02T12:34:57.174Z,29.36
2016-08-02T12:35:56.458Z,29.35
2016-08-02T12:36:57.178Z,29.25
2016-08-02T12:37:57.175Z,29.15
2016-08-02T12:38:56.466Z,29.15
2016-08-02T12:39:57.191Z,29.15
2016-08-02T12:41:56.466Z,29.15
2016-08-02T12:42:57.198Z,29.07
2016-08-02T12:43:57.198Z,28.29
2016-08-02T12:44:57.198Z,28.47
2016-08-02T12:45:57.191Z,28.88
2016-08-02T12:46:56.482Z,28.49
2016-08-02T12:47:57.206Z,28.47
2016-08-02T12:48:57.207Z,28.29
2016-08-02T12:49:56.487Z,28.47
2016-08-02T12:50:57.211Z,28.18
2016-08-02T12:51:57.210Z,27.98
2016-08-02T12:52:57.215Z,28.45
2016-08-02T12:53:57.216Z,28.96
2016-08-02T12:54:57.214Z,29.15
2016-08-02T12:56:57.228Z,29.04
2016-08-02T12:57:57.231Z,29.25
2016-08-02T12:58:56.507Z,29.35
2016-08-02T12:59:57.231Z,29.25
2016-08-02T13:00:57.231Z,29.35
2016-08-02T13:01:57.235Z,28.67
2016-08-02T13:02:57.231Z,29.15
2016-08-02T13:03:57.283Z,28.68
2016-08-02T13:04:57.239Z,29.17
2016-08-02T13:05:57.283Z,29.07
2016-08-02T13:06:56.527Z,29.17
2016-08-02T13:07:57.248Z,28.78
2016-08-02T13:08:57.248Z,28.88
2016-08-02T13:09:57.252Z,29.27
2016-08-02T13:10:57.256Z,28.58
2016-08-02T13:11:57.255Z,28.47
2016-08-02T13:12:57.460Z,28.38
2016-08-02T13:13:57.260Z,28.08
2016-08-02T13:14:56.544Z,28.18
2016-08-02T13:15:56.544Z,28.67
2016-08-02T13:16:57.264Z,28.47
2016-08-02T13:17:57.263Z,28.28
2016-08-02T13:18:57.271Z,28.38